Bethel Airport
PABE : now visible

Airfield :











YOU CAN JOIN US ON...

 
LOGIN :

Register | Disclaimer

   EN    FR    IT 

 









Legend :    VFR   Marginal VFR   IFR   Intensive IFR   Very Intensive IFR
Visi :
Ceiling :
>= 8 km
>= 3000ft
5 to 8 km
1000 to 3000 ft
1500m to 5 km
500 to 1000 ft
800 to 1500m
200 to 500 ft
< 800m
< 200 ft
Symbols :   Thunderstorms  Fog  Heavy snow  Heavy precipitations  Wind > 20 kt






- Airport Elevation : 126 ft
- IATA code : BET


PABE - Bethel

CURRENT METAR :
  • 020653Z 27008KT 10SM FEW120 M05/M07 A3017 RMK AO2 SLP219 T10501067

EXPIRED METARs :
  • 020621Z 27011KT 10SM FEW005 BKN110 M05/M06 A3016 RMK AO2 T10501061
  • 020553Z 27009KT 10SM FEW044 OVC110 M04/M06 A3015 RMK AO2 SNB15E45 SLP211 P0000 60000 T10441056 11006 21044 51023
  • 020453Z 27007KT 6SM BR SCT005 BKN075 OVC095 M04/M05 A3013 RMK AO2 SNE08 SLP205 P0000 T10391050

TAF PABE
Valid from the 02 at 06:00 until the 03 at 06:00 UTC


020521Z 0206/0306 29006KT 6SM -SN BR SCT005 BKN050
FM020800 27007KT 4SM BR SCT003
FM021300 VRB05KT 1/2SM FG BKN003
FM021800 17009KT P6SM FEW003 OVC050
FM030200 18015KT P6SM -SN OVC025



MET'MAP, your aeronautical weather chart ! - Copyright ORBIFLY December 2007 - Disclaimer

ORBIFLY MET'MAP TEAM :

Programming & Development : Alexandra Zaïnal
Concept & original design : Baudouin d'Aumeries
Assistance for programming : Marc-Olivier Méhu
Technical & hardware support : Manuel Goepfert

Contact : metmap@orbifly.com




SOURCES & CREDITS :

   NOAA       Earth
Advisory